^^
Saratoga-Weather Station Historical Data
Daily Summary for April 6, 2020 Units:  Metric    English   Both
Daily Weekly Monthly Yearly Custom
  High: Low: Average:
Temperature: 4.9 °C 0.7 °C 2.3 °C
Dew Point: 3.4 °C 0.1 °C 1.6 °C
Humidity: 97% 89% 95%
Wind Speed: 4.7km/h 0km/h 0.4km/h
Wind Gust: 4.8km/h - -
Wind- - SSE
Pressure: 1000.3 hPa 998.0 hPa -
Precipitation: 0.0 mm    
Historical Graphs
 
 
Tabular Data for April 6, 2020
Time Temperature Dew Point Pressure Wind Wind Speed Wind Gust Humidity Rainfall Rate (Hourly) solar
00:03 0.7 °C 0.1 °C 999.0 hPa Calm     96% 0.0 mm 0 W/m2
00:08 0.7 °C 0.1 °C 999.0 hPa Calm     96% 0.0 mm 0 W/m2
00:13 0.7 °C 0.1 °C 999.0 hPa Calm     96% 0.0 mm 0 W/m2
00:18 0.7 °C 0.1 °C 998.6 hPa Calm     96% 0.0 mm 0 W/m2
00:23 0.7 °C 0.1 °C 998.6 hPa Calm     96% 0.0 mm 0 W/m2
00:28 0.7 °C 0.1 °C 998.6 hPa Calm     96% 0.0 mm 0 W/m2
00:33 0.7 °C 0.1 °C 998.6 hPa Calm     96% 0.0 mm 0 W/m2
00:38 0.8 °C 0.2 °C 998.6 hPa Calm     96% 0.0 mm 0 W/m2
00:43 0.8 °C 0.2 °C 998.6 hPa Calm     96% 0.0 mm 0 W/m2
00:48 0.8 °C 0.2 °C 998.6 hPa Calm     96% 0.0 mm 0 W/m2
00:53 0.7 °C 0.1 °C 998.3 hPa Calm     96% 0.0 mm 0 W/m2
00:58 0.8 °C 0.2 °C 998.6 hPa Calm     96% 0.0 mm 0 W/m2
01:03 0.8 °C 0.2 °C 998.6 hPa Calm     96% 0.0 mm 0 W/m2
01:08 0.8 °C 0.2 °C 998.6 hPa Calm     96% 0.0 mm 0 W/m2
01:13 0.9 °C 0.5 °C 998.6 hPa Calm     97% 0.0 mm 0 W/m2
01:18 1 °C 0.6 °C 998.6 hPa Calm     97% 0.0 mm 0 W/m2
01:23 1 °C 0.6 °C 998.6 hPa Calm     97% 0.0 mm 0 W/m2
01:28 0.9 °C 0.5 °C 998.6 hPa Calm     97% 0.0 mm 0 W/m2
01:33 0.9 °C 0.5 °C 998.6 hPa Calm     97% 0.0 mm 0 W/m2
01:38 0.9 °C 0.5 °C 998.6 hPa Calm     97% 0.0 mm 0 W/m2
01:43 0.8 °C 0.4 °C 998.6 hPa Calm     97% 0.0 mm 0 W/m2
01:48 0.9 °C 0.5 °C 998.6 hPa Calm     97% 0.0 mm 0 W/m2
01:53 0.9 °C 0.5 °C 999.0 hPa Calm     97% 0.0 mm 0 W/m2
01:58 1 °C 0.6 °C 998.6 hPa Calm     97% 0.0 mm 0 W/m2
02:03 1 °C 0.6 °C 999.3 hPa Calm     97% 0.0 mm 0 W/m2
02:08 1.1 °C 0.7 °C 999.3 hPa Calm     97% 0.0 mm 0 W/m2
02:13 1.1 °C 0.7 °C 999.3 hPa Calm     97% 0.0 mm 0 W/m2
02:18 1.1 °C 0.7 °C 999.0 hPa Calm     97% 0.0 mm 0 W/m2
02:23 1.1 °C 0.7 °C 999.0 hPa Calm     97% 0.0 mm 0 W/m2
02:28 1.1 °C 0.7 °C 999.3 hPa Calm     97% 0.0 mm 0 W/m2
02:33 1.1 °C 0.7 °C 999.0 hPa Calm     97% 0.0 mm 0 W/m2
02:38 1 °C 0.6 °C 998.6 hPa Calm     97% 0.0 mm 0 W/m2
02:43 1 °C 0.6 °C 999.0 hPa Calm     97% 0.0 mm 0 W/m2
02:48 0.9 °C 0.5 °C 999.0 hPa Calm     97% 0.0 mm 0 W/m2
02:53 0.9 °C 0.5 °C 999.0 hPa Calm   1.6 km/h 97% 0.0 mm 0 W/m2
02:58 0.9 °C 0.5 °C 999.3 hPa Calm   1.6 km/h 97% 0.0 mm 0 W/m2
03:03 1 °C 0.6 °C 999.3 hPa East 1.4 km/h 1.6 km/h 97% 0.0 mm 0 W/m2
03:08 1 °C 0.6 °C 999.3 hPa Calm     97% 0.0 mm 0 W/m2
03:13 1 °C 0.6 °C 999.3 hPa Calm     97% 0.0 mm 0 W/m2
03:18 1 °C 0.6 °C 999.0 hPa Calm     97% 0.0 mm 0 W/m2
03:23 0.9 °C 0.5 °C 999.0 hPa East 1.4 km/h 1.6 km/h 97% 0.0 mm 0 W/m2
03:28 0.9 °C 0.5 °C 999.0 hPa Calm     97% 0.0 mm 0 W/m2
03:33 0.9 °C 0.5 °C 999.0 hPa Calm     97% 0.0 mm 0 W/m2
03:38 0.8 °C 0.4 °C 999.0 hPa Calm   1.6 km/h 97% 0.0 mm 0 W/m2
03:43 0.8 °C 0.2 °C 999.0 hPa Calm     96% 0.0 mm 0 W/m2
03:48 0.8 °C 0.4 °C 999.0 hPa East 1.4 km/h 1.6 km/h 97% 0.0 mm 0 W/m2
03:53 0.8 °C 0.4 °C 999.0 hPa Calm     97% 0.0 mm 0 W/m2
03:58 0.8 °C 0.4 °C 999.0 hPa Calm     97% 0.0 mm 0 W/m2
04:03 0.8 °C 0.4 °C 999.0 hPa East 1.4 km/h 3.2 km/h 97% 0.0 mm 0 W/m2
04:08 0.8 °C 0.4 °C 999.0 hPa Calm     97% 0.0 mm 0 W/m2
04:13 0.8 °C 0.4 °C 999.0 hPa Calm   3.2 km/h 97% 0.0 mm 0 W/m2
04:18 0.8 °C 0.4 °C 999.0 hPa Calm     97% 0.0 mm 0 W/m2
04:23 0.8 °C 0.4 °C 999.0 hPa Calm     97% 0.0 mm 0 W/m2
04:28 0.8 °C 0.4 °C 999.0 hPa Calm     97% 0.0 mm 0 W/m2
04:33 0.8 °C 0.4 °C 999.0 hPa Calm     97% 0.0 mm 0 W/m2
04:38 0.8 °C 0.4 °C 999.0 hPa Calm     97% 0.0 mm 0 W/m2
04:43 0.8 °C 0.4 °C 999.0 hPa Calm     97% 0.0 mm 0 W/m2
04:48 0.8 °C 0.4 °C 999.0 hPa Calm     97% 0.0 mm 0 W/m2
04:53 0.8 °C 0.4 °C 999.0 hPa Calm     97% 0.0 mm 0 W/m2
04:58 0.8 °C 0.4 °C 999.0 hPa Calm     97% 0.0 mm 0 W/m2
05:03 0.8 °C 0.4 °C 999.0 hPa Calm     97% 0.0 mm 0 W/m2
05:08 0.9 °C 0.5 °C 998.6 hPa Calm     97% 0.0 mm 0 W/m2
05:13 1 °C 0.6 °C 998.6 hPa Calm     97% 0.0 mm 0 W/m2
05:18 1.1 °C 0.7 °C 999.0 hPa Calm     97% 0.0 mm 0 W/m2
05:23 1.1 °C 0.7 °C 998.6 hPa Calm     97% 0.0 mm 0 W/m2
05:28 1.2 °C 0.8 °C 999.0 hPa Calm     97% 0.0 mm 0 W/m2
05:33 1.2 °C 0.8 °C 999.0 hPa Calm   3.2 km/h 97% 0.0 mm 0 W/m2
05:38 1.2 °C 0.8 °C 998.6 hPa Calm     97% 0.0 mm 0 W/m2
05:43 1.2 °C 0.8 °C 999.0 hPa Calm   3.2 km/h 97% 0.0 mm 0 W/m2
05:48 1.2 °C 0.8 °C 998.6 hPa Calm     97% 0.0 mm 0 W/m2
05:53 1.2 °C 0.8 °C 998.6 hPa Calm     97% 0.0 mm 0 W/m2
05:58 1.2 °C 0.8 °C 998.6 hPa Calm     97% 0.0 mm 0 W/m2
06:03 1.2 °C 0.8 °C 998.6 hPa Calm     97% 0.0 mm 0 W/m2
06:08 1.2 °C 0.8 °C 998.6 hPa Calm     97% 0.0 mm 0 W/m2
06:13 1.2 °C 0.8 °C 998.6 hPa Calm     97% 0.0 mm 0 W/m2
06:18 1.3 °C 0.9 °C 998.6 hPa Calm     97% 0.0 mm 0 W/m2
06:23 1.3 °C 0.9 °C 998.6 hPa Calm     97% 0.0 mm 0 W/m2
06:28 1.3 °C 0.9 °C 998.6 hPa Calm     97% 0.0 mm 0 W/m2
06:33 1.3 °C 0.9 °C 998.6 hPa Calm     97% 0.0 mm 0 W/m2
06:38 1.3 °C 0.9 °C 998.6 hPa Calm     97% 0.0 mm 0 W/m2
06:43 1.3 °C 0.9 °C 998.6 hPa Calm     97% 0.0 mm 0 W/m2
06:48 1.4 °C 1 °C 998.6 hPa Calm     97% 0.0 mm 0 W/m2
06:53 1.4 °C 1 °C 998.6 hPa Calm     97% 0.0 mm 0 W/m2
06:58 1.4 °C 1 °C 998.6 hPa Calm     97% 0.0 mm 0 W/m2
07:03 1.4 °C 1 °C 998.6 hPa Calm     97% 0.0 mm 0 W/m2
07:08 1.4 °C 1 °C 999.0 hPa Calm     97% 0.0 mm 0 W/m2
07:14 1.5 °C 1.1 °C 999.0 hPa Calm     97% 0.0 mm 0 W/m2
07:19 1.5 °C 1.1 °C 999.3 hPa Calm     97% 0.0 mm 0 W/m2
07:24 1.6 °C 1.2 °C 999.3 hPa Calm     97% 0.0 mm 0 W/m2
07:29 1.6 °C 1.2 °C 999.3 hPa Calm     97% 0.0 mm 0 W/m2
07:34 1.6 °C 1.2 °C 999.3 hPa Calm     97% 0.0 mm 0 W/m2
07:39 1.6 °C 1.2 °C 999.3 hPa Calm     97% 0.0 mm 0 W/m2
07:44 1.6 °C 1.2 °C 999.3 hPa Calm     97% 0.0 mm 0 W/m2
07:49 1.6 °C 1.2 °C 999.0 hPa Calm     97% 0.0 mm 0 W/m2
07:54 1.6 °C 1.2 °C 999.3 hPa Calm     97% 0.0 mm 0 W/m2
07:59 1.6 °C 1.2 °C 999.3 hPa Calm     97% 0.0 mm 0 W/m2
08:04 1.6 °C 1.2 °C 999.3 hPa Calm     97% 0.0 mm 0 W/m2
08:09 1.6 °C 1.2 °C 999.3 hPa Calm   3.2 km/h 97% 0.0 mm 0 W/m2
08:14 1.6 °C 1.2 °C 999.3 hPa Calm   1.6 km/h 97% 0.0 mm 0 W/m2
08:19 1.6 °C 1.2 °C 999.3 hPa Calm   1.6 km/h 97% 0.0 mm 0 W/m2
08:24 1.6 °C 1.2 °C 999.3 hPa East 1.4 km/h 3.2 km/h 97% 0.0 mm 0 W/m2
08:29 1.6 °C 1.2 °C 999.3 hPa Calm   4.8 km/h 97% 0.0 mm 0 W/m2
08:34 1.6 °C 1.2 °C 999.3 hPa Calm     97% 0.0 mm 0 W/m2
08:39 1.6 °C 1.2 °C 999.3 hPa Calm   3.2 km/h 97% 0.0 mm 5 W/m2
08:44 1.6 °C 1.2 °C 999.3 hPa East 1.4 km/h 1.6 km/h 97% 0.0 mm 5 W/m2
08:49 1.6 °C 1.2 °C 999.3 hPa Calm   1.6 km/h 97% 0.0 mm 7 W/m2
08:54 1.6 °C 1.2 °C 999.3 hPa Calm     97% 0.0 mm 9 W/m2
08:59 1.6 °C 1.2 °C 999.3 hPa East 3.2 km/h 3.2 km/h 97% 0.0 mm 11 W/m2
09:04 1.6 °C 1.2 °C 999.3 hPa Calm     97% 0.0 mm 11 W/m2
09:09 1.7 °C 1.3 °C 999.3 hPa Calm     97% 0.0 mm 12 W/m2
09:14 1.7 °C 1.3 °C 999.3 hPa Calm     97% 0.0 mm 14 W/m2
09:19 1.7 °C 1.3 °C 999.3 hPa Calm     97% 0.0 mm 14 W/m2
09:24 1.7 °C 1.3 °C 999.3 hPa Calm     97% 0.0 mm 16 W/m2
09:29 1.8 °C 1.4 °C 999.3 hPa Calm     97% 0.0 mm 18 W/m2
09:34 1.8 °C 1.4 °C 999.3 hPa Calm     97% 0.0 mm 19 W/m2
09:39 1.8 °C 1.4 °C 999.3 hPa Calm     97% 0.0 mm 19 W/m2
09:44 1.8 °C 1.4 °C 999.3 hPa Calm     97% 0.0 mm 25 W/m2
09:53 1.9 °C 1.5 °C 999.3 hPa Calm     97% 0.0 mm 23 W/m2
09:58 1.9 °C 1.5 °C 999.3 hPa Calm     97% 0.0 mm 25 W/m2
10:03 1.9 °C 1.5 °C 999.3 hPa Calm     97% 0.0 mm 25 W/m2
10:08 2 °C 1.6 °C 999.3 hPa Calm     97% 0.0 mm 25 W/m2
10:13 2.1 °C 1.7 °C 999.3 hPa Calm     97% 0.0 mm 28 W/m2
10:18 2.1 °C 1.7 °C 999.3 hPa Calm     97% 0.0 mm 28 W/m2
10:23 2.2 °C 1.8 °C 999.3 hPa Calm     97% 0.0 mm 23 W/m2
10:28 2.2 °C 1.8 °C 999.3 hPa Calm     97% 0.0 mm 26 W/m2
10:33 2.2 °C 1.8 °C 999.3 hPa Calm     97% 0.0 mm 26 W/m2
10:38 2.2 °C 1.8 °C 999.3 hPa Calm     97% 0.0 mm 30 W/m2
10:43 2.2 °C 1.8 °C 999.3 hPa Calm     97% 0.0 mm 33 W/m2
10:48 2.3 °C 1.9 °C 999.3 hPa Calm     97% 0.0 mm 33 W/m2
10:53 2.3 °C 1.9 °C 999.7 hPa Calm     97% 0.0 mm 40 W/m2
10:58 2.3 °C 1.9 °C 999.7 hPa Calm     97% 0.0 mm 40 W/m2
11:03 2.4 °C 2 °C 999.7 hPa Calm     97% 0.0 mm 42 W/m2
11:08 2.4 °C 2 °C 999.7 hPa Calm     97% 0.0 mm 46 W/m2
11:13 2.5 °C 2.1 °C 999.7 hPa East 1.4 km/h 4.8 km/h 97% 0.0 mm 47 W/m2
11:19 2.5 °C 2.1 °C 999.7 hPa Calm   3.2 km/h 97% 0.0 mm 44 W/m2
11:24 2.6 °C 2.2 °C 1000.0 hPa Calm   3.2 km/h 97% 0.0 mm 46 W/m2
11:29 2.6 °C 2.2 °C 1000.3 hPa ESE 1.4 km/h 4.8 km/h 97% 0.0 mm 49 W/m2
11:34 2.7 °C 2.3 °C 1000.0 hPa Calm   1.6 km/h 97% 0.0 mm 58 W/m2
11:39 2.8 °C 2.4 °C 1000.0 hPa Calm   1.6 km/h 97% 0.0 mm 54 W/m2
11:44 2.8 °C 2.2 °C 1000.0 hPa Calm   1.6 km/h 96% 0.0 mm 56 W/m2
11:49 2.9 °C 2.5 °C 1000.0 hPa Calm     97% 0.0 mm 58 W/m2
11:54 2.9 °C 2.3 °C 999.7 hPa Calm   1.6 km/h 96% 0.0 mm 77 W/m2
11:59 2.9 °C 2.3 °C 999.7 hPa ESE 1.4 km/h 3.2 km/h 96% 0.0 mm 97 W/m2
12:04 3 °C 2.4 °C 999.3 hPa Calm   4.8 km/h 96% 0.0 mm 118 W/m2
12:09 3 °C 2.4 °C 999.3 hPa West 1.4 km/h 3.2 km/h 96% 0.0 mm 118 W/m2
12:14 3.1 °C 2.5 °C 999.3 hPa WNW 3.2 km/h 3.2 km/h 96% 0.0 mm 144 W/m2
12:19 3.3 °C 2.7 °C 999.3 hPa WNW 3.2 km/h 4.8 km/h 96% 0.0 mm 142 W/m2
12:24 3.3 °C 2.6 °C 999.3 hPa West 1.4 km/h 3.2 km/h 95% 0.0 mm 146 W/m2
12:29 3.5 °C 2.8 °C 999.3 hPa West 1.4 km/h 1.6 km/h 95% 0.0 mm 139 W/m2
12:34 3.6 °C 2.9 °C 999.3 hPa West 1.4 km/h 3.2 km/h 95% 0.0 mm 134 W/m2
12:39 3.8 °C 3.1 °C 999.7 hPa Calm     95% 0.0 mm 132 W/m2
12:44 3.9 °C 3.2 °C 999.3 hPa West 1.4 km/h 4.8 km/h 95% 0.0 mm 111 W/m2
12:49 4 °C 3.1 °C 999.3 hPa Calm   3.2 km/h 94% 0.0 mm 93 W/m2
12:54 4.1 °C 3.2 °C 999.3 hPa West 1.4 km/h 4.8 km/h 94% 0.0 mm 69 W/m2
12:59 4.1 °C 3.1 °C 999.3 hPa Calm     93% 0.0 mm 65 W/m2
13:04 4.2 °C 3.2 °C 999.3 hPa West 1.4 km/h 1.6 km/h 93% 0.0 mm 74 W/m2
13:09 4.2 °C 3.2 °C 999.3 hPa Calm     93% 0.0 mm 90 W/m2
13:14 4.2 °C 3.2 °C 999.3 hPa Calm   1.6 km/h 93% 0.0 mm 100 W/m2
13:19 4.3 °C 3.3 °C 999.3 hPa East 3.2 km/h 4.8 km/h 93% 0.0 mm 97 W/m2
13:24 4.4 °C 3.2 °C 999.3 hPa ESE 1.4 km/h 3.2 km/h 92% 0.0 mm 102 W/m2
13:29 4.5 °C 3.3 °C 999.3 hPa ESE 3.2 km/h 4.8 km/h 92% 0.0 mm 98 W/m2
13:34 4.6 °C 3.3 °C 999.3 hPa Calm   1.6 km/h 91% 0.0 mm 109 W/m2
13:39 4.6 °C 3.3 °C 999.3 hPa Calm   3.2 km/h 91% 0.0 mm 113 W/m2
13:44 4.7 °C 3.4 °C 999.0 hPa NE 1.4 km/h 3.2 km/h 91% 0.0 mm 114 W/m2
13:49 4.6 °C 3.1 °C 999.0 hPa NNE 3.2 km/h 3.2 km/h 90% 0.0 mm 114 W/m2
13:54 4.7 °C 3.2 °C 999.0 hPa East 1.4 km/h 1.6 km/h 90% 0.0 mm 113 W/m2
13:59 4.7 °C 3.2 °C 999.0 hPa ESE 1.4 km/h 3.2 km/h 90% 0.0 mm 107 W/m2
14:04 4.7 °C 3.2 °C 999.0 hPa SE 3.2 km/h 3.2 km/h 90% 0.0 mm 107 W/m2
14:09 4.7 °C 3.2 °C 999.0 hPa Calm     90% 0.0 mm 111 W/m2
14:14 4.7 °C 3.2 °C 999.0 hPa Calm     90% 0.0 mm 118 W/m2
14:19 4.7 °C 3.2 °C 999.0 hPa Calm     90% 0.0 mm 114 W/m2
14:24 4.8 °C 3.3 °C 999.0 hPa Calm   1.6 km/h 90% 0.0 mm 104 W/m2
14:29 4.8 °C 3.3 °C 999.0 hPa East 1.4 km/h 1.6 km/h 90% 0.0 mm 107 W/m2
14:34 4.8 °C 3.3 °C 999.0 hPa East 1.4 km/h 1.6 km/h 90% 0.0 mm 104 W/m2
14:39 4.9 °C 3.4 °C 999.0 hPa East 3.2 km/h 3.2 km/h 90% 0.0 mm 93 W/m2
14:44 4.9 °C 3.4 °C 999.0 hPa East 3.2 km/h 3.2 km/h 90% 0.0 mm 84 W/m2
14:49 4.9 °C 3.4 °C 998.6 hPa East 3.2 km/h 3.2 km/h 90% 0.0 mm 84 W/m2
14:54 4.9 °C 3.4 °C 998.6 hPa East 1.4 km/h 3.2 km/h 90% 0.0 mm 90 W/m2
14:59 4.9 °C 3.4 °C 998.6 hPa East 3.2 km/h 3.2 km/h 90% 0.0 mm 95 W/m2
15:04 4.9 °C 3.4 °C 998.6 hPa Calm   1.6 km/h 90% 0.0 mm 90 W/m2
15:09 4.9 °C 3.2 °C 998.3 hPa East 3.2 km/h 3.2 km/h 89% 0.0 mm 95 W/m2
15:14 4.9 °C 3.4 °C 998.3 hPa Calm     90% 0.0 mm 83 W/m2
15:19 4.9 °C 3.2 °C 998.0 hPa Calm   3.2 km/h 89% 0.0 mm 77 W/m2
15:24 4.8 °C 3.1 °C 998.0 hPa Calm   1.6 km/h 89% 0.0 mm 65 W/m2
15:29 4.8 °C 3.1 °C 998.0 hPa Calm     89% 0.0 mm 56 W/m2
15:34 4.8 °C 3.1 °C 998.3 hPa East 1.4 km/h 3.2 km/h 89% 0.0 mm 54 W/m2
15:39 4.7 °C 3.2 °C 998.6 hPa Calm     90% 0.0 mm 47 W/m2
15:44 4.7 °C 3.2 °C 998.6 hPa SE 1.4 km/h 3.2 km/h 90% 0.0 mm 40 W/m2
15:49 4.6 °C 3.1 °C 998.6 hPa Calm   1.6 km/h 90% 0.0 mm 39 W/m2
15:54 4.5 °C 3.2 °C 998.6 hPa Calm     91% 0.0 mm 40 W/m2
15:59 4.4 °C 3.1 °C 998.6 hPa Calm   1.6 km/h 91% 0.0 mm 44 W/m2
16:04 4.3 °C 3 °C 998.6 hPa Calm     91% 0.0 mm 30 W/m2
16:09 4.3 °C 3 °C 998.6 hPa Calm     91% 0.0 mm 25 W/m2
16:14 4.3 °C 3 °C 998.6 hPa ESE 1.4 km/h 3.2 km/h 91% 0.0 mm 23 W/m2
16:20 4.2 °C 2.9 °C 999.0 hPa Calm     91% 0.0 mm 18 W/m2
16:25 4.1 °C 2.9 °C 999.0 hPa Calm     92% 0.0 mm 14 W/m2
16:30 4.1 °C 2.9 °C 999.0 hPa Calm     92% 0.0 mm 9 W/m2
16:35 3.9 °C 2.7 °C 999.0 hPa SW 1.4 km/h 3.2 km/h 92% 0.0 mm 9 W/m2
16:40 3.9 °C 2.7 °C 999.0 hPa Calm     92% 0.0 mm 9 W/m2
16:45 3.8 °C 2.6 °C 999.3 hPa Calm     92% 0.0 mm 7 W/m2
16:50 3.7 °C 2.5 °C 999.3 hPa SW 1.4 km/h 1.6 km/h 92% 0.0 mm 0 W/m2
16:55 3.6 °C 2.4 °C 999.0 hPa Calm     92% 0.0 mm 0 W/m2
17:00 3.6 °C 2.4 °C 999.0 hPa Calm     92% 0.0 mm 0 W/m2
17:05 3.4 °C 2.4 °C 999.0 hPa Calm   1.6 km/h 93% 0.0 mm 0 W/m2
17:10 3.3 °C 2.3 °C 999.0 hPa Calm     93% 0.0 mm 0 W/m2
17:15 3.3 °C 2.3 °C 999.0 hPa Calm     93% 0.0 mm 0 W/m2
17:20 3.2 °C 2.2 °C 999.0 hPa Calm   1.6 km/h 93% 0.0 mm 0 W/m2
17:25 3.1 °C 2.1 °C 999.0 hPa Calm     93% 0.0 mm 0 W/m2
17:30 3 °C 2 °C 999.0 hPa Calm     93% 0.0 mm 0 W/m2
17:35 2.9 °C 1.9 °C 999.0 hPa Calm     93% 0.0 mm 0 W/m2
17:40 2.8 °C 1.8 °C 999.0 hPa Calm     93% 0.0 mm 0 W/m2
17:45 2.7 °C 1.7 °C 999.3 hPa Calm     93% 0.0 mm 0 W/m2
17:50 2.7 °C 1.8 °C 999.3 hPa Calm     94% 0.0 mm 0 W/m2
17:55 2.6 °C 1.7 °C 999.3 hPa Calm     94% 0.0 mm 0 W/m2
18:00 2.5 °C 1.6 °C 999.7 hPa Calm     94% 0.0 mm 0 W/m2
18:05 2.4 °C 1.5 °C 999.7 hPa Calm     94% 0.0 mm 0 W/m2
18:10 2.4 °C 1.5 °C 999.7 hPa Calm     94% 0.0 mm 0 W/m2
18:15 2.4 °C 1.5 °C 999.7 hPa Calm   1.6 km/h 94% 0.0 mm 0 W/m2
18:20 2.3 °C 1.4 °C 999.3 hPa Calm     94% 0.0 mm 0 W/m2
18:25 2.3 °C 1.4 °C 999.3 hPa Calm     94% 0.0 mm 0 W/m2
18:30 2.2 °C 1.3 °C 999.3 hPa SW 1.4 km/h 1.6 km/h 94% 0.0 mm 0 W/m2
18:35 2.2 °C 1.3 °C 999.0 hPa Calm     94% 0.0 mm 0 W/m2
18:40 2.1 °C 1.2 °C 999.0 hPa Calm     94% 0.0 mm 0 W/m2
18:45 2.1 °C 1.2 °C 999.0 hPa Calm     94% 0.0 mm 0 W/m2
18:50 2 °C 1.1 °C 999.0 hPa Calm     94% 0.0 mm 0 W/m2
18:55 1.9 °C 1 °C 999.0 hPa Calm     94% 0.0 mm 0 W/m2
19:00 1.9 °C 1.2 °C 999.0 hPa Calm     95% 0.0 mm 0 W/m2
19:05 1.9 °C 1.2 °C 999.0 hPa Calm     95% 0.0 mm 0 W/m2
19:10 1.9 °C 1.2 °C 999.0 hPa SW 1.4 km/h 3.2 km/h 95% 0.0 mm 0 W/m2
19:15 1.9 °C 1.2 °C 998.6 hPa Calm   1.6 km/h 95% 0.0 mm 0 W/m2
19:20 2.1 °C 1.4 °C 999.0 hPa SW 1.4 km/h 3.2 km/h 95% 0.0 mm 0 W/m2
19:25 2.1 °C 1.4 °C 998.6 hPa Calm     95% 0.0 mm 0 W/m2
19:30 2.2 °C 1.5 °C 998.6 hPa West 3.2 km/h 4.8 km/h 95% 0.0 mm 0 W/m2
19:35 2.2 °C 1.5 °C 999.0 hPa WNW 3.2 km/h 3.2 km/h 95% 0.0 mm 0 W/m2
19:40 2.3 °C 1.6 °C 999.0 hPa WNW 4.7 km/h 4.8 km/h 95% 0.0 mm 0 W/m2
19:45 2.4 °C 1.7 °C 998.6 hPa NW 3.2 km/h 4.8 km/h 95% 0.0 mm 0 W/m2
Juneau County Weather
Compliments of Weather Underground - 2 mb